createdAt,value
2022-09-22T00:04:20.770Z,4.93
2022-09-22T00:09:25.243Z,4.85
2022-09-22T00:14:29.260Z,4.93
2022-09-22T00:19:34.462Z,5.63
2022-09-22T00:24:38.691Z,5.80
2022-09-22T00:29:41.655Z,5.75
2022-09-22T00:34:44.434Z,5.97
2022-09-22T00:39:48.546Z,5.90
2022-09-22T00:44:51.320Z,5.97
2022-09-22T00:49:56.346Z,5.68
2022-09-22T00:55:04.586Z,5.97
2022-09-22T01:00:10.475Z,5.55
2022-09-22T01:05:13.961Z,5.82
2022-09-22T01:10:18.664Z,5.82
2022-09-22T01:15:29.238Z,6.22
2022-09-22T01:20:57.475Z,6.32
2022-09-22T01:26:35.898Z,6.07
2022-09-22T01:31:45.011Z,5.50
2022-09-22T01:36:53.482Z,5.88
2022-09-22T01:47:08.484Z,5.88
2022-09-22T01:52:16.567Z,5.60
2022-09-22T01:57:24.919Z,5.15
2022-09-22T02:02:33.810Z,4.75
2022-09-22T02:07:41.134Z,5.00
2022-09-22T02:12:44.022Z,5.22
2022-09-22T02:17:48.376Z,5.88
2022-09-22T02:22:51.196Z,5.90
2022-09-22T02:27:57.093Z,6.22
2022-09-22T02:33:02.350Z,6.32
2022-09-22T02:38:14.340Z,6.32
2022-09-22T02:43:25.265Z,6.25
2022-09-22T02:48:34.201Z,6.45
2022-09-22T02:53:37.465Z,6.70
2022-09-22T02:58:40.322Z,6.88
2022-09-22T03:03:44.472Z,6.07
2022-09-22T03:08:47.486Z,6.15
2022-09-22T03:13:50.473Z,7.22
2022-09-22T03:18:54.573Z,6.43
2022-09-22T03:23:57.452Z,6.40
2022-09-22T03:29:00.193Z,6.50
2022-09-22T03:34:04.500Z,7.07
2022-09-22T03:39:07.258Z,6.43
2022-09-22T03:44:10.372Z,6.63
2022-09-22T03:49:14.475Z,7.15
2022-09-22T03:54:17.684Z,6.60
2022-09-22T03:59:20.371Z,6.63
2022-09-22T04:04:24.612Z,6.20
2022-09-22T04:09:27.370Z,5.90
2022-09-22T04:14:30.374Z,6.72
2022-09-22T04:19:35.646Z,6.30
2022-09-22T04:24:38.507Z,5.90
2022-09-22T04:29:41.314Z,6.55
2022-09-22T04:34:46.541Z,6.65
2022-09-22T04:39:50.326Z,6.85
2022-09-22T04:44:57.036Z,6.97
2022-09-22T04:50:01.291Z,7.07
2022-09-22T04:55:04.443Z,7.78
2022-09-22T05:00:08.927Z,7.32
2022-09-22T05:05:13.246Z,7.80
2022-09-22T05:10:17.885Z,7.45
2022-09-22T05:15:22.734Z,7.28
2022-09-22T05:20:27.203Z,7.72
2022-09-22T05:25:30.153Z,8.05
2022-09-22T05:30:32.864Z,7.88
2022-09-22T05:35:37.294Z,8.43
2022-09-22T05:40:40.131Z,8.35
2022-09-22T05:45:43.878Z,8.88
2022-09-22T05:50:48.140Z,9.18
2022-09-22T05:55:50.908Z,9.68
2022-09-22T06:00:57.286Z,9.13
2022-09-22T06:06:01.602Z,8.90
2022-09-22T06:11:04.398Z,8.98
2022-09-22T06:16:07.488Z,8.85
2022-09-22T06:21:11.840Z,8.82
2022-09-22T06:26:14.624Z,9.05
2022-09-22T06:31:17.638Z,8.80
2022-09-22T06:36:31.370Z,8.18
2022-09-22T06:41:34.794Z,7.10
2022-09-22T06:46:38.971Z,7.07
2022-09-22T06:51:43.187Z,6.68
2022-09-22T06:56:46.346Z,5.55
2022-09-22T07:01:49.511Z,5.45
2022-09-22T07:06:53.728Z,3.97
2022-09-22T07:11:57.329Z,3.28
2022-09-22T07:17:00.238Z,3.13
2022-09-22T07:22:04.424Z,2.25
2022-09-22T07:27:07.602Z,2.30
2022-09-22T07:32:10.815Z,2.30
2022-09-22T07:37:15.539Z,2.13
2022-09-22T07:42:19.964Z,2.70
2022-09-22T07:47:42.928Z,2.80
2022-09-22T07:52:53.168Z,2.92
2022-09-22T07:57:58.414Z,2.53
2022-09-22T08:03:01.569Z,2.47
2022-09-22T08:08:06.035Z,2.03
2022-09-22T08:13:10.009Z,2.25
2022-09-22T08:18:14.350Z,2.22
2022-09-22T08:23:18.472Z,2.67
2022-09-22T08:28:21.719Z,2.10
2022-09-22T08:33:24.548Z,2.97
2022-09-22T08:38:28.809Z,3.08
2022-09-22T08:43:32.362Z,2.75
2022-09-22T08:48:53.170Z,3.90
2022-09-22T08:54:02.454Z,1.75
2022-09-22T08:59:13.202Z,1.90
2022-09-22T09:04:45.241Z,1.33
2022-09-22T09:10:03.165Z,1.35
2022-09-22T09:15:18.926Z,1.40
2022-09-22T09:20:32.453Z,1.15
2022-09-22T09:25:41.194Z,1.40
2022-09-22T09:30:47.767Z,1.67
2022-09-22T09:35:53.438Z,2.42
2022-09-22T09:41:03.776Z,2.55
2022-09-22T09:46:16.486Z,2.00
2022-09-22T09:51:20.519Z,1.77
2022-09-22T09:56:28.063Z,1.90
2022-09-22T10:01:32.447Z,1.87
2022-09-22T10:06:35.458Z,1.88
2022-09-22T10:11:39.583Z,1.88
2022-09-22T10:16:52.707Z,1.98
2022-09-22T10:22:18.294Z,1.90
2022-09-22T10:27:27.731Z,1.60
2022-09-22T10:32:31.232Z,2.13
2022-09-22T10:37:34.649Z,1.80
2022-09-22T10:42:43.432Z,1.50
2022-09-22T10:47:58.993Z,1.45
2022-09-22T10:53:17.538Z,2.05
2022-09-22T11:04:06.700Z,2.40
2022-09-22T11:09:37.344Z,2.17
2022-09-22T11:15:00.326Z,2.28
2022-09-22T11:20:22.970Z,2.00
2022-09-22T11:25:49.306Z,1.60
2022-09-22T11:30:54.253Z,2.13
2022-09-22T11:36:28.767Z,2.47
2022-09-22T11:41:34.995Z,1.33
2022-09-22T11:46:55.852Z,1.65
2022-09-22T11:52:17.161Z,1.75
2022-09-22T11:57:24.680Z,1.75
2022-09-22T12:02:32.735Z,1.37
2022-09-22T12:07:44.864Z,1.30
2022-09-22T12:12:50.508Z,0.90
2022-09-22T12:18:02.556Z,1.20
2022-09-22T12:23:24.499Z,1.40
2022-09-22T12:28:30.411Z,1.40
2022-09-22T12:33:35.352Z,1.90
2022-09-22T12:38:40.271Z,1.02
2022-09-22T12:43:43.105Z,0.90
2022-09-22T12:48:47.638Z,1.33
2022-09-22T12:53:52.031Z,1.08
2022-09-22T12:58:54.903Z,0.80
2022-09-22T13:04:08.024Z,1.60
2022-09-22T13:09:21.537Z,1.20
2022-09-22T13:15:00.098Z,1.20
2022-09-22T13:20:14.473Z,1.25
2022-09-22T13:25:24.775Z,1.00
2022-09-22T13:30:27.601Z,1.30
2022-09-22T13:35:34.878Z,1.58
2022-09-22T13:40:39.366Z,1.30
2022-09-22T13:45:45.859Z,1.10
2022-09-22T13:50:54.534Z,1.00
2022-09-22T13:56:00.155Z,1.33
2022-09-22T14:01:19.830Z,1.63
2022-09-22T14:06:25.934Z,1.30
2022-09-22T14:11:33.354Z,3.25
2022-09-22T14:16:46.890Z,1.73
2022-09-22T14:21:52.595Z,1.80
2022-09-22T14:27:03.949Z,1.20
2022-09-22T14:32:13.398Z,1.10
2022-09-22T14:37:23.554Z,1.20
2022-09-22T14:42:29.703Z,1.30
2022-09-22T14:47:39.296Z,1.60
2022-09-22T14:52:58.077Z,1.33
2022-09-22T14:58:06.305Z,1.20
2022-09-22T15:03:20.570Z,1.83
2022-09-22T15:08:27.832Z,1.80
2022-09-22T15:13:39.416Z,2.25
2022-09-22T15:18:42.257Z,1.30
2022-09-22T15:23:48.000Z,2.53
2022-09-22T15:28:53.482Z,1.10
2022-09-22T15:34:00.013Z,1.20
2022-09-22T15:39:08.915Z,1.33
2022-09-22T15:44:13.278Z,2.13
2022-09-22T15:49:21.018Z,1.30
2022-09-22T15:54:25.055Z,1.17
2022-09-22T15:59:33.058Z,2.30
2022-09-22T16:04:36.338Z,1.92
2022-09-22T16:09:39.195Z,1.50
2022-09-22T16:14:43.452Z,1.50
2022-09-22T16:19:46.202Z,1.67
2022-09-22T16:24:48.973Z,1.10
2022-09-22T16:29:53.107Z,1.15
2022-09-22T16:34:55.921Z,1.65
2022-09-22T16:40:01.164Z,1.83
2022-09-22T16:45:06.155Z,1.80
2022-09-22T16:50:12.459Z,1.92
2022-09-22T16:55:15.517Z,1.92
2022-09-22T17:00:29.710Z,2.38
2022-09-22T17:05:34.240Z,1.80
2022-09-22T17:10:36.946Z,2.67
2022-09-22T17:15:41.491Z,2.42
2022-09-22T17:20:44.566Z,2.20
2022-09-22T17:25:47.901Z,2.15
2022-09-22T17:30:58.589Z,2.13
2022-09-22T17:36:03.082Z,3.13
2022-09-22T17:41:10.866Z,2.20
2022-09-22T17:46:16.972Z,1.80
2022-09-22T17:51:52.839Z,1.92
2022-09-22T17:56:55.652Z,1.70
2022-09-22T18:02:00.971Z,1.80
2022-09-22T18:07:06.843Z,1.50
2022-09-22T18:12:11.973Z,1.88
2022-09-22T18:17:18.532Z,2.15
2022-09-22T18:28:38.441Z,1.90
2022-09-22T18:34:16.964Z,1.75
2022-09-22T18:39:47.297Z,2.10
2022-09-22T18:44:50.356Z,2.72
2022-09-22T18:49:54.637Z,2.47
2022-09-22T18:54:58.911Z,2.78
2022-09-22T19:00:01.897Z,2.47
2022-09-22T19:05:06.889Z,3.08
2022-09-22T19:10:10.618Z,5.25
2022-09-22T19:15:16.665Z,2.00
2022-09-22T19:20:23.971Z,2.97
2022-09-22T19:25:27.467Z,3.00
2022-09-22T19:30:31.625Z,3.45
2022-09-22T19:35:39.209Z,3.05
2022-09-22T19:40:42.496Z,3.15
2022-09-22T19:45:45.376Z,3.22
2022-09-22T19:50:49.643Z,2.83
2022-09-22T19:55:53.775Z,4.10
2022-09-22T20:00:56.745Z,4.03
2022-09-22T20:06:00.992Z,2.65
2022-09-22T20:11:23.030Z,2.78
2022-09-22T20:16:28.203Z,2.70
2022-09-22T20:21:33.387Z,4.25
2022-09-22T20:26:36.201Z,3.40
2022-09-22T20:31:39.009Z,3.00
2022-09-22T20:36:44.232Z,3.35
2022-09-22T20:41:47.209Z,3.25
2022-09-22T20:46:50.050Z,2.55
2022-09-22T20:51:54.590Z,2.72
2022-09-22T20:56:57.394Z,2.60
2022-09-22T21:02:00.796Z,2.92
2022-09-22T21:07:05.228Z,3.08
2022-09-22T21:12:08.435Z,3.38
2022-09-22T21:17:11.259Z,3.10
2022-09-22T21:22:15.631Z,2.97
2022-09-22T21:27:18.370Z,3.72
2022-09-22T21:32:21.145Z,4.88
2022-09-22T21:37:25.681Z,3.05
2022-09-22T21:42:28.497Z,3.00
2022-09-22T21:47:31.483Z,3.30
2022-09-22T21:52:38.406Z,2.90
2022-09-22T21:57:41.221Z,2.88
2022-09-22T22:03:01.545Z,3.35
2022-09-22T22:08:05.830Z,2.88
2022-09-22T22:13:10.400Z,2.75
2022-09-22T22:18:13.212Z,2.83
2022-09-22T22:23:18.711Z,3.08
2022-09-22T22:28:22.784Z,2.85
2022-09-22T22:33:25.563Z,3.05
2022-09-22T22:38:30.989Z,2.90
2022-09-22T22:43:33.873Z,2.80
2022-09-22T22:48:36.899Z,2.90
2022-09-22T22:53:41.804Z,2.65
2022-09-22T22:58:45.715Z,2.58
2022-09-22T23:03:52.207Z,3.17
2022-09-22T23:08:57.262Z,2.75
2022-09-22T23:14:03.029Z,2.70
2022-09-22T23:19:09.225Z,3.20
2022-09-22T23:24:16.693Z,2.90
2022-09-22T23:29:19.772Z,2.90
2022-09-22T23:34:22.584Z,2.70
2022-09-22T23:39:26.746Z,2.50
2022-09-22T23:44:29.736Z,2.85
2022-09-22T23:49:32.723Z,3.00
2022-09-22T23:54:36.859Z,3.13
2022-09-22T23:59:39.680Z,2.70
